createdAt,value
2018-01-02T00:00:28.736Z,4.69
2018-01-02T00:01:28.734Z,4.65
2018-01-02T00:02:28.763Z,4.62
2018-01-02T00:03:29.024Z,4.69
2018-01-02T00:04:28.778Z,4.77
2018-01-02T00:05:28.821Z,4.72
2018-01-02T00:06:28.809Z,4.65
2018-01-02T00:08:43.537Z,4.85
2018-01-02T00:09:28.894Z,4.84
2018-01-02T00:10:29.144Z,4.78
2018-01-02T00:11:28.900Z,4.78
2018-01-02T00:12:29.182Z,4.86
2018-01-02T00:13:29.177Z,4.85
2018-01-02T00:14:29.186Z,4.73
2018-01-02T00:15:43.884Z,4.73
2018-01-02T00:16:29.227Z,4.7
2018-01-02T00:17:43.912Z,4.7
2018-01-02T00:18:29.253Z,4.75
2018-01-02T00:19:28.763Z,4.84
2018-01-02T00:20:43.968Z,5
2018-01-02T00:21:29.318Z,5.04
2018-01-02T00:22:29.347Z,4.86
2018-01-02T00:23:29.330Z,4.89
2018-01-02T00:24:29.364Z,4.85
2018-01-02T00:25:28.862Z,4.77
2018-01-02T00:26:29.416Z,4.86
2018-01-02T00:27:43.830Z,4.73
2018-01-02T00:28:29.429Z,4.78
2018-01-02T00:29:43.858Z,4.7
2018-01-02T00:30:29.468Z,4.7
2018-01-02T00:31:29.477Z,4.72
2018-01-02T00:32:29.495Z,4.8
2018-01-02T00:33:29.021Z,4.77
2018-01-02T00:34:43.947Z,4.77
2018-01-02T00:35:29.548Z,4.8
2018-01-02T00:36:29.532Z,4.69
2018-01-02T00:37:44.287Z,4.84
2018-01-02T00:38:29.573Z,4.73
2018-01-02T00:39:29.595Z,4.7
2018-01-02T00:40:44.286Z,4.75
2018-01-02T00:41:29.388Z,4.82
2018-01-02T00:42:29.629Z,4.77
2018-01-02T00:44:29.417Z,4.77
2018-01-02T00:46:29.476Z,4.75
2018-01-02T00:47:29.732Z,4.73
2018-01-02T00:48:29.747Z,4.75
2018-01-02T00:49:29.741Z,4.92
2018-01-02T00:50:29.515Z,4.78
2018-01-02T00:51:29.766Z,4.77
2018-01-02T00:53:29.554Z,4.88
2018-01-02T00:54:29.863Z,5
2018-01-02T00:56:44.292Z,5.04
2018-01-02T00:57:29.889Z,4.99
2018-01-02T00:58:29.638Z,4.96
2018-01-02T00:59:44.331Z,5.03
2018-01-02T01:00:29.924Z,5.06
2018-01-02T01:01:29.933Z,4.92
2018-01-02T01:02:29.954Z,5.02
2018-01-02T01:03:29.984Z,5.07
2018-01-02T01:04:29.742Z,5.07
2018-01-02T01:05:30.023Z,5.09
2018-01-02T01:06:30.014Z,5.02
2018-01-02T01:07:30.026Z,5.07
2018-01-02T01:08:30.041Z,4.99
2018-01-02T01:09:29.817Z,4.99
2018-01-02T01:10:30.087Z,4.92
2018-01-02T01:11:30.102Z,4.97
2018-01-02T01:12:44.801Z,5.02
2018-01-02T01:13:30.142Z,5
2018-01-02T01:14:29.886Z,4.97
2018-01-02T01:15:30.197Z,4.97
2018-01-02T01:16:30.169Z,5.02
2018-01-02T01:17:30.209Z,5
2018-01-02T01:18:29.961Z,5.09
2018-01-02T01:19:29.972Z,5.15
2018-01-02T01:20:30.007Z,5.02
2018-01-02T01:21:29.767Z,5.04
2018-01-02T01:22:30.286Z,5.1
2018-01-02T01:23:30.310Z,5.13
2018-01-02T01:24:30.296Z,5.13
2018-01-02T01:25:30.073Z,5.15
2018-01-02T01:26:30.359Z,5.22
2018-01-02T01:27:30.343Z,5.17
2018-01-02T01:28:45.064Z,5.15
2018-01-02T01:29:30.385Z,5.21
2018-01-02T01:30:30.387Z,5.15
2018-01-02T01:31:30.448Z,5.21
2018-01-02T01:32:30.172Z,5.31
2018-01-02T01:33:30.219Z,5.22
2018-01-02T01:35:30.475Z,5.33
2018-01-02T01:36:30.519Z,5.24
2018-01-02T01:37:30.565Z,5.36
2018-01-02T01:38:30.591Z,5.27
2018-01-02T01:39:30.585Z,5.35
2018-01-02T01:40:30.565Z,5.4
2018-01-02T01:41:30.603Z,5.33
2018-01-02T01:42:30.606Z,5.38
2018-01-02T01:43:45.029Z,5.36
2018-01-02T01:44:30.365Z,5.33
2018-01-02T01:45:30.654Z,5.38
2018-01-02T01:46:30.393Z,5.28
2018-01-02T01:47:30.427Z,5.3
2018-01-02T01:48:30.723Z,5.39
2018-01-02T01:49:30.714Z,5.3
2018-01-02T01:50:30.734Z,5.45
2018-01-02T01:51:30.610Z,5.39
2018-01-02T01:52:30.507Z,5.39
2018-01-02T01:53:30.794Z,5.35
2018-01-02T01:54:30.537Z,5.4
2018-01-02T01:55:30.788Z,5.4
2018-01-02T01:56:30.828Z,5.4
2018-01-02T01:57:30.611Z,5.48
2018-01-02T01:58:30.868Z,5.33
2018-01-02T01:59:30.641Z,5.3
2018-01-02T02:00:30.384Z,5.36
2018-01-02T02:01:30.647Z,5.27
2018-01-02T02:02:30.939Z,5.22
2018-01-02T02:03:30.691Z,5.1
2018-01-02T02:04:45.369Z,5.22
2018-01-02T02:05:30.708Z,5.18
2018-01-02T02:06:30.967Z,5.17
2018-01-02T02:07:30.977Z,5.1
2018-01-02T02:08:30.740Z,5.07
2018-01-02T02:09:31.014Z,5.04
2018-01-02T02:10:31.089Z,5.04
2018-01-02T02:11:31.050Z,5.03
2018-01-02T02:12:31.081Z,5.04
2018-01-02T02:13:31.069Z,5.06
2018-01-02T02:14:30.862Z,4.94
2018-01-02T02:15:45.790Z,4.97
2018-01-02T02:16:30.887Z,5.07
2018-01-02T02:17:31.167Z,4.99
2018-01-02T02:18:31.187Z,4.92
2018-01-02T02:19:30.920Z,4.92
2018-01-02T02:20:31.184Z,4.99
2018-01-02T02:21:30.965Z,4.91
2018-01-02T02:22:30.967Z,4.88
2018-01-02T02:23:31.258Z,4.91
2018-01-02T02:24:31.250Z,4.92
2018-01-02T02:25:31.290Z,4.89
2018-01-02T02:26:31.046Z,4.92
2018-01-02T02:27:45.988Z,4.84
2018-01-02T02:28:31.319Z,4.82
2018-01-02T02:29:31.075Z,4.85
2018-01-02T02:30:31.175Z,4.78
2018-01-02T02:31:46.043Z,4.86
2018-01-02T02:32:31.389Z,4.67
2018-01-02T02:33:31.390Z,4.75
2018-01-02T02:34:31.151Z,4.77
2018-01-02T02:35:31.425Z,4.75
2018-01-02T02:36:31.202Z,4.84
2018-01-02T02:37:31.220Z,4.67
2018-01-02T02:38:31.221Z,4.7
2018-01-02T02:39:31.496Z,4.84
2018-01-02T02:40:46.183Z,4.82
2018-01-02T02:41:31.257Z,4.77
2018-01-02T02:42:31.557Z,4.67
2018-01-02T02:43:31.037Z,4.69
2018-01-02T02:44:31.584Z,4.72
2018-01-02T02:45:31.627Z,4.78
2018-01-02T02:46:31.375Z,4.69
2018-01-02T02:47:46.033Z,4.78
2018-01-02T02:48:31.386Z,4.73
2018-01-02T02:49:31.677Z,4.85
2018-01-02T02:50:46.345Z,4.77
2018-01-02T02:51:31.424Z,4.77
2018-01-02T02:52:31.736Z,4.7
2018-01-02T02:53:46.390Z,4.88
2018-01-02T02:54:31.726Z,4.73
2018-01-02T02:55:31.730Z,4.8
2018-01-02T02:56:31.499Z,4.77
2018-01-02T02:57:31.261Z,4.67
2018-01-02T02:58:31.539Z,4.84
2018-01-02T02:59:31.561Z,4.72
2018-01-02T03:00:31.815Z,4.69
2018-01-02T03:01:31.841Z,4.6
2018-01-02T03:02:31.858Z,4.75
2018-01-02T03:03:46.290Z,4.77
2018-01-02T03:04:31.929Z,4.78
2018-01-02T03:05:31.658Z,4.73
2018-01-02T03:06:31.941Z,4.69
2018-01-02T03:07:31.693Z,4.73
2018-01-02T03:08:31.936Z,4.67
2018-01-02T03:09:31.942Z,4.72
2018-01-02T03:10:31.981Z,4.69
2018-01-02T03:11:31.728Z,4.7
2018-01-02T03:12:32.010Z,4.65
2018-01-02T03:13:46.432Z,4.78
2018-01-02T03:14:31.548Z,4.75
2018-01-02T03:15:32.036Z,4.63
2018-01-02T03:16:31.819Z,4.7
2018-01-02T03:17:32.166Z,4.65
2018-01-02T03:18:46.765Z,4.77
2018-01-02T03:19:31.856Z,4.69
2018-01-02T03:20:31.618Z,4.67
2018-01-02T03:21:31.883Z,4.8
2018-01-02T03:22:31.919Z,4.75
2018-01-02T03:23:31.665Z,4.72
2018-01-02T03:24:32.228Z,4.67
2018-01-02T03:25:46.881Z,4.72
2018-01-02T03:26:31.996Z,4.72
2018-01-02T03:27:31.974Z,4.72
2018-01-02T03:28:31.988Z,4.66
2018-01-02T03:29:32.284Z,4.63
2018-01-02T03:30:32.034Z,4.69
2018-01-02T03:31:32.135Z,4.73
2018-01-02T03:32:32.063Z,4.73
2018-01-02T03:33:32.339Z,4.72
2018-01-02T03:34:32.348Z,4.72
2018-01-02T03:35:32.099Z,4.73
2018-01-02T03:36:32.377Z,4.69
2018-01-02T03:37:32.386Z,4.69
2018-01-02T03:39:32.410Z,4.7
2018-01-02T03:40:32.177Z,4.72
2018-01-02T03:41:32.437Z,4.72
2018-01-02T03:42:32.457Z,4.65
2018-01-02T03:43:32.221Z,4.72
2018-01-02T03:44:32.247Z,4.73
2018-01-02T03:45:32.566Z,4.69
2018-01-02T03:46:32.262Z,4.72
2018-01-02T03:47:32.579Z,4.72
2018-01-02T03:48:32.301Z,4.73
2018-01-02T03:49:32.583Z,4.7
2018-01-02T03:50:47.264Z,4.69
2018-01-02T03:51:32.597Z,4.66
2018-01-02T03:52:32.700Z,4.75
2018-01-02T03:53:32.392Z,4.7
2018-01-02T03:54:32.636Z,4.69
2018-01-02T03:56:32.693Z,4.69
2018-01-02T03:57:32.726Z,4.67
2018-01-02T03:58:32.482Z,4.65
2018-01-02T03:59:32.743Z,4.63
2018-01-02T04:00:32.512Z,4.67
2018-01-02T04:01:32.526Z,4.67
2018-01-02T04:02:32.782Z,4.67
2018-01-02T04:03:32.796Z,4.63
2018-01-02T04:05:32.819Z,4.72
2018-01-02T04:06:47.500Z,4.73
2018-01-02T04:07:32.354Z,4.77
2018-01-02T04:08:32.888Z,4.72
2018-01-02T04:09:32.623Z,4.78
2018-01-02T04:10:32.654Z,4.78
2018-01-02T04:11:32.901Z,4.7
2018-01-02T04:12:32.679Z,4.67
2018-01-02T04:13:32.449Z,4.7
2018-01-02T04:14:47.390Z,4.72
2018-01-02T04:15:32.724Z,4.7
2018-01-02T04:16:32.724Z,4.67
2018-01-02T04:17:32.771Z,4.78
2018-01-02T04:18:33.029Z,4.69
2018-01-02T04:19:32.774Z,4.65
2018-01-02T04:20:32.784Z,4.7
2018-01-02T04:21:47.724Z,4.72
2018-01-02T04:22:47.753Z,4.78
2018-01-02T04:23:33.085Z,4.82
2018-01-02T04:24:32.858Z,4.66
2018-01-02T04:26:32.939Z,4.69
2018-01-02T04:27:33.168Z,4.8
2018-01-02T04:28:33.152Z,4.77
2018-01-02T04:29:33.181Z,4.75
2018-01-02T04:30:33.266Z,4.67
2018-01-02T04:31:32.997Z,4.77
2018-01-02T04:32:33.250Z,4.72
2018-01-02T04:34:33.022Z,4.73
2018-01-02T04:35:33.037Z,4.78
2018-01-02T04:36:33.291Z,4.69
2018-01-02T04:37:33.303Z,4.66
2018-01-02T04:38:48.002Z,4.7
2018-01-02T04:39:32.852Z,4.66
2018-01-02T04:40:33.368Z,4.73
2018-01-02T04:41:33.137Z,4.7
2018-01-02T04:42:33.132Z,4.67
2018-01-02T04:43:33.144Z,4.7
2018-01-02T04:44:33.404Z,4.7
2018-01-02T04:45:32.923Z,4.73
2018-01-02T04:46:33.457Z,4.73
2018-01-02T04:47:33.196Z,4.77
2018-01-02T04:48:33.240Z,4.84
2018-01-02T04:49:32.988Z,4.67
2018-01-02T04:50:33.522Z,4.73
2018-01-02T04:51:33.280Z,4.73
2018-01-02T04:52:33.564Z,4.62
2018-01-02T04:53:48.229Z,4.65
2018-01-02T04:54:33.565Z,4.82
2018-01-02T04:56:33.343Z,4.67
2018-01-02T04:57:33.372Z,4.65
2018-01-02T04:58:33.413Z,4.67
2018-01-02T04:59:33.393Z,4.72
2018-01-02T05:00:33.435Z,4.69
2018-01-02T05:01:33.444Z,4.7
2018-01-02T05:02:33.710Z,4.77
2018-01-02T05:03:33.720Z,4.73
2018-01-02T05:04:33.465Z,4.72
2018-01-02T05:05:33.752Z,4.72
2018-01-02T05:06:33.512Z,4.73
2018-01-02T05:07:48.446Z,4.77
2018-01-02T05:08:33.800Z,4.73
2018-01-02T05:09:33.545Z,4.84
2018-01-02T05:11:33.823Z,4.8
2018-01-02T05:12:33.356Z,4.77
2018-01-02T05:13:33.874Z,4.7
2018-01-02T05:14:33.900Z,4.8
2018-01-02T05:15:33.636Z,4.77
2018-01-02T05:16:33.669Z,4.88
2018-01-02T05:17:33.706Z,4.77
2018-01-02T05:18:33.932Z,4.85
2018-01-02T05:19:33.964Z,4.88
2018-01-02T05:20:33.736Z,4.73
2018-01-02T05:21:33.745Z,4.78
2018-01-02T05:22:34.000Z,4.88
2018-01-02T05:23:48.700Z,4.8
2018-01-02T05:25:48.739Z,4.92
2018-01-02T05:26:34.110Z,4.77
2018-01-02T05:27:33.819Z,4.84
2018-01-02T05:28:33.831Z,4.8
2018-01-02T05:29:34.152Z,4.8
2018-01-02T05:30:33.906Z,4.85
2018-01-02T05:31:33.657Z,4.86
2018-01-02T05:32:48.831Z,4.85
2018-01-02T05:33:33.914Z,4.86
2018-01-02T05:34:33.964Z,4.85
2018-01-02T05:35:33.968Z,4.94
2018-01-02T05:36:33.719Z,4.91
2018-01-02T05:37:34.279Z,4.92
2018-01-02T05:38:33.760Z,4.85
2018-01-02T05:39:48.953Z,4.8
2018-01-02T05:40:34.054Z,4.96
2018-01-02T05:41:49.088Z,4.89
2018-01-02T05:42:34.069Z,4.96
2018-01-02T05:43:34.081Z,5.04
2018-01-02T05:44:48.768Z,4.96
2018-01-02T05:45:34.367Z,5.04
2018-01-02T05:46:34.145Z,5
2018-01-02T05:47:34.153Z,4.97
2018-01-02T05:48:34.166Z,4.96
2018-01-02T05:50:34.174Z,5.03
2018-01-02T05:51:34.199Z,4.92
2018-01-02T05:52:34.484Z,5.09
2018-01-02T05:53:34.514Z,4.96
2018-01-02T05:54:34.503Z,4.84
2018-01-02T05:55:34.530Z,4.86
2018-01-02T05:56:34.292Z,4.89
2018-01-02T05:57:49.221Z,4.96
2018-01-02T05:58:34.302Z,4.96
2018-01-02T05:59:34.333Z,4.97
2018-01-02T06:00:34.347Z,5
2018-01-02T06:01:34.369Z,5.06
2018-01-02T06:03:34.401Z,4.86
2018-01-02T06:04:34.645Z,4.85
2018-01-02T06:05:34.453Z,4.94
2018-01-02T06:06:34.697Z,5.06
2018-01-02T06:07:34.442Z,5.1
2018-01-02T06:08:34.741Z,5.24
2018-01-02T06:09:34.723Z,5.18
2018-01-02T06:10:34.495Z,5.24
2018-01-02T06:12:34.522Z,5.27
2018-01-02T06:13:49.467Z,5.17
2018-01-02T06:14:34.315Z,5.13
2018-01-02T06:15:34.580Z,5.02
2018-01-02T06:16:34.582Z,5.06
2018-01-02T06:17:34.847Z,5.12
2018-01-02T06:18:34.899Z,5.02
2018-01-02T06:19:34.881Z,5.1
2018-01-02T06:20:34.657Z,5.07
2018-01-02T06:21:34.672Z,5.1
2018-01-02T06:22:34.723Z,5.03
2018-01-02T06:23:34.695Z,5.07
2018-01-02T06:24:34.972Z,5.09
2018-01-02T06:25:34.721Z,5.09
2018-01-02T06:26:49.695Z,5.12
2018-01-02T06:27:35.051Z,5.07
2018-01-02T06:29:34.815Z,5.15
2018-01-02T06:30:35.103Z,5.2
2018-01-02T06:31:35.103Z,5.13
2018-01-02T06:32:34.854Z,5.2
2018-01-02T06:33:35.137Z,5.15
2018-01-02T06:34:35.134Z,5.15
2018-01-02T06:35:34.900Z,5.22
2018-01-02T06:36:34.907Z,5.31
2018-01-02T06:37:35.162Z,5.3
2018-01-02T06:38:34.967Z,5.3
2018-01-02T06:39:34.969Z,5.27
2018-01-02T06:40:35.231Z,5.3
2018-01-02T06:41:35.232Z,5.27
2018-01-02T06:42:34.992Z,5.28
2018-01-02T06:43:35.284Z,5.28
2018-01-02T06:44:35.288Z,5.33
2018-01-02T06:45:35.057Z,5.31
2018-01-02T06:46:35.081Z,5.24
2018-01-02T06:47:35.082Z,5.38
2018-01-02T06:48:35.339Z,5.4
2018-01-02T06:49:49.787Z,5.25
2018-01-02T06:50:35.364Z,5.36
2018-01-02T06:51:35.414Z,5.35
2018-01-02T06:52:50.088Z,5.43
2018-01-02T06:53:35.427Z,5.43
2018-01-02T06:54:35.454Z,5.36
2018-01-02T06:56:35.492Z,5.39
2018-01-02T06:57:35.012Z,5.4
2018-01-02T06:58:35.256Z,5.39
2018-01-02T06:59:35.540Z,5.42
2018-01-02T07:00:50.227Z,5.42
2018-01-02T07:01:35.569Z,5.49
2018-01-02T07:03:35.601Z,5.42
2018-01-02T07:04:35.100Z,5.45
2018-01-02T07:06:35.641Z,5.38
2018-01-02T07:07:35.674Z,5.31
2018-01-02T07:08:35.408Z,5.27
2018-01-02T07:09:35.443Z,5.2
2018-01-02T07:10:35.727Z,5.09
2018-01-02T07:11:35.451Z,5.15
2018-01-02T07:12:35.741Z,5.17
2018-01-02T07:13:35.746Z,4.96
2018-01-02T07:14:35.745Z,5.06
2018-01-02T07:15:35.808Z,4.89
2018-01-02T07:16:50.456Z,4.86
2018-01-02T07:18:35.840Z,4.91
2018-01-02T07:20:35.848Z,4.96
2018-01-02T07:21:35.880Z,4.85
2018-01-02T07:22:35.900Z,4.85
2018-01-02T07:23:35.891Z,4.84
2018-01-02T07:24:35.660Z,4.89
2018-01-02T07:25:35.936Z,4.78
2018-01-02T07:26:50.618Z,4.84
2018-01-02T07:27:35.962Z,4.85
2018-01-02T07:28:35.992Z,4.8
2018-01-02T07:29:50.678Z,4.82
2018-01-02T07:30:36.022Z,4.86
2018-01-02T07:31:36.014Z,4.86
2018-01-02T07:32:50.461Z,4.84
2018-01-02T07:33:36.052Z,4.78
2018-01-02T07:34:36.055Z,4.88
2018-01-02T07:37:36.126Z,4.8
2018-01-02T07:38:35.901Z,4.77
2018-01-02T07:39:36.137Z,4.78
2018-01-02T07:40:35.932Z,4.91
2018-01-02T07:41:36.184Z,4.86
2018-01-02T07:42:35.958Z,4.85
2018-01-02T07:43:36.219Z,4.86
2018-01-02T07:44:35.970Z,4.75
2018-01-02T07:45:36.248Z,4.88
2018-01-02T07:46:36.246Z,4.88
2018-01-02T07:47:36.046Z,4.82
2018-01-02T07:48:50.962Z,4.82
2018-01-02T07:49:36.054Z,4.91
2018-01-02T07:50:36.321Z,4.82
2018-01-02T07:51:36.345Z,4.88
2018-01-02T07:52:36.337Z,4.96
2018-01-02T07:53:36.361Z,4.89
2018-01-02T07:54:36.146Z,5.02
2018-01-02T07:55:36.419Z,4.86
2018-01-02T07:56:51.084Z,4.96
2018-01-02T07:57:51.119Z,4.86
2018-01-02T07:58:36.185Z,4.94
2018-01-02T07:59:51.126Z,4.88
2018-01-02T08:00:36.474Z,4.88
2018-01-02T08:01:36.256Z,4.92
2018-01-02T08:02:51.180Z,5
2018-01-02T08:03:51.187Z,4.94
2018-01-02T08:04:36.552Z,5.06
2018-01-02T08:05:36.292Z,4.92
2018-01-02T08:06:36.327Z,5
2018-01-02T08:07:36.573Z,4.99
2018-01-02T08:08:36.349Z,5.09
2018-01-02T08:09:36.359Z,5.07
2018-01-02T08:10:36.622Z,4.94
2018-01-02T08:11:36.699Z,4.84
2018-01-02T08:12:36.645Z,5
2018-01-02T08:13:36.689Z,5.1
2018-01-02T08:14:36.451Z,5.1
2018-01-02T08:15:36.713Z,5.09
2018-01-02T08:17:36.742Z,5.17
2018-01-02T08:18:36.770Z,5.04
2018-01-02T08:19:36.761Z,5.09
2018-01-02T08:20:36.535Z,5.04
2018-01-02T08:21:36.531Z,5.03
2018-01-02T08:23:36.580Z,5.13
2018-01-02T08:24:36.877Z,5.18
2018-01-02T08:25:36.880Z,5.18
2018-01-02T08:26:36.894Z,5.17
2018-01-02T08:27:36.644Z,5.1
2018-01-02T08:28:36.900Z,5.18
2018-01-02T08:29:36.928Z,5.22
2018-01-02T08:30:36.703Z,5.17
2018-01-02T08:31:36.699Z,5.2
2018-01-02T08:32:36.960Z,5.3
2018-01-02T08:33:36.737Z,5.21
2018-01-02T08:34:37.003Z,5.07
2018-01-02T08:35:51.702Z,5.2
2018-01-02T08:36:36.785Z,5.15
2018-01-02T08:37:36.798Z,5.21
2018-01-02T08:38:36.808Z,5.3
2018-01-02T08:39:36.844Z,5.27
2018-01-02T08:40:36.848Z,5.24
2018-01-02T08:41:51.789Z,5.28
2018-01-02T08:42:37.161Z,5.18
2018-01-02T08:43:37.165Z,5.25
2018-01-02T08:44:37.195Z,5.22
2018-01-02T08:45:37.161Z,5.27
2018-01-02T08:46:37.224Z,5.31
2018-01-02T08:48:37.237Z,5.25
2018-01-02T08:49:36.967Z,5.24
2018-01-02T08:50:37.020Z,5.28
2018-01-02T08:51:51.952Z,5.3
2018-01-02T08:52:37.318Z,5.33
2018-01-02T08:53:37.290Z,5.42
2018-01-02T08:54:37.058Z,5.33
2018-01-02T08:55:37.346Z,5.28
2018-01-02T08:56:37.344Z,5.3
2018-01-02T08:57:37.457Z,5.36
2018-01-02T08:58:37.385Z,5.45
2018-01-02T08:59:37.416Z,5.4
2018-01-02T09:00:52.074Z,5.43
2018-01-02T09:01:37.176Z,5.42
2018-01-02T09:02:37.426Z,5.45
2018-01-02T09:03:37.466Z,5.45
2018-01-02T09:04:37.456Z,5.4
2018-01-02T09:05:37.502Z,5.39
2018-01-02T09:06:37.537Z,5.4
2018-01-02T09:07:52.207Z,5.36
2018-01-02T09:08:37.550Z,5.35
2018-01-02T09:09:37.312Z,5.36
2018-01-02T09:11:37.581Z,5.46
2018-01-02T09:12:37.592Z,5.39
2018-01-02T09:13:52.302Z,5.46
2018-01-02T09:14:37.653Z,5.53
2018-01-02T09:15:37.392Z,5.51
2018-01-02T09:16:37.398Z,5.51
2018-01-02T09:17:52.369Z,5.57
2018-01-02T09:18:37.712Z,5.78
2018-01-02T09:19:37.717Z,5.68
2018-01-02T09:20:37.491Z,5.61
2018-01-02T09:21:52.405Z,5.74
2018-01-02T09:22:37.754Z,5.74
2018-01-02T09:23:52.450Z,5.68
2018-01-02T09:24:37.794Z,5.65
2018-01-02T09:25:37.839Z,5.72
2018-01-02T09:26:37.805Z,5.76
2018-01-02T09:27:37.332Z,5.74
2018-01-02T09:28:37.858Z,5.76
2018-01-02T09:29:37.634Z,5.72
2018-01-02T09:30:37.894Z,5.83
2018-01-02T09:31:37.910Z,5.74
2018-01-02T09:32:37.935Z,5.91
2018-01-02T09:33:37.920Z,5.89
2018-01-02T09:34:37.955Z,5.86
2018-01-02T09:35:52.633Z,5.85
2018-01-02T09:36:37.970Z,5.85
2018-01-02T09:37:37.743Z,5.82
2018-01-02T09:38:52.707Z,5.83
2018-01-02T09:39:38.048Z,5.81
2018-01-02T09:40:38.063Z,5.82
2018-01-02T09:42:38.069Z,5.9
2018-01-02T09:43:38.090Z,5.93
2018-01-02T09:44:37.854Z,5.91
2018-01-02T09:45:37.902Z,5.9
2018-01-02T09:46:38.136Z,5.85
2018-01-02T09:47:38.150Z,5.89
2018-01-02T09:48:38.207Z,5.89
2018-01-02T09:49:52.856Z,6
2018-01-02T09:50:38.220Z,6.03
2018-01-02T09:52:38.256Z,6.06
2018-01-02T09:53:37.990Z,6.01
2018-01-02T09:55:38.297Z,6
2018-01-02T09:56:38.369Z,6.03
2018-01-02T09:57:37.814Z,5.96
2018-01-02T09:59:38.101Z,5.99
2018-01-02T10:00:38.110Z,6.09
2018-01-02T10:01:38.405Z,6.17
2018-01-02T10:02:38.397Z,6.15
2018-01-02T10:03:38.163Z,6.21
2018-01-02T10:04:38.426Z,6.22
2018-01-02T10:05:38.464Z,6.22
2018-01-02T10:06:38.465Z,6.18
2018-01-02T10:07:38.467Z,6.19
2018-01-02T10:08:38.497Z,6.22
2018-01-02T10:09:38.257Z,6.3
2018-01-02T10:10:53.204Z,6.25
2018-01-02T10:12:38.575Z,6.28
2018-01-02T10:13:38.582Z,6.34
2018-01-02T10:14:38.603Z,6.36
2018-01-02T10:15:38.605Z,6.36
2018-01-02T10:16:38.371Z,6.34
2018-01-02T10:17:38.668Z,6.38
2018-01-02T10:19:38.435Z,6.31
2018-01-02T10:20:53.362Z,6.36
2018-01-02T10:21:38.484Z,6.4
2018-01-02T10:22:38.745Z,6.43
2018-01-02T10:23:38.741Z,6.43
2018-01-02T10:24:38.752Z,6.36
2018-01-02T10:25:38.780Z,6.4
2018-01-02T10:26:53.475Z,6.59
2018-01-02T10:27:38.556Z,6.52
2018-01-02T10:28:38.817Z,6.44
2018-01-02T10:29:38.834Z,6.41
2018-01-02T10:30:38.893Z,6.52
2018-01-02T10:31:38.905Z,6.52
2018-01-02T10:32:53.324Z,6.59
2018-01-02T10:33:38.933Z,6.59
2018-01-02T10:34:38.957Z,6.58
2018-01-02T10:35:39.052Z,6.55
2018-01-02T10:36:38.946Z,6.56
2018-01-02T10:37:38.990Z,6.56
2018-01-02T10:38:39.007Z,6.61
2018-01-02T10:39:38.761Z,6.59
2018-01-02T10:40:39.049Z,6.58
2018-01-02T10:41:39.089Z,6.61
2018-01-02T10:42:53.478Z,6.61
2018-01-02T10:43:39.096Z,6.55
2018-01-02T10:44:39.103Z,6.58
2018-01-02T10:45:39.103Z,6.61
2018-01-02T10:46:38.894Z,6.54
2018-01-02T10:47:39.214Z,6.61
2018-01-02T10:48:39.183Z,6.62
2018-01-02T10:49:39.173Z,6.55
2018-01-02T10:50:39.189Z,6.7
2018-01-02T10:51:39.203Z,6.69
2018-01-02T10:52:39.239Z,6.8
2018-01-02T10:53:39.252Z,6.7
2018-01-02T10:54:39.033Z,6.69
2018-01-02T10:55:39.305Z,6.74
2018-01-02T10:56:39.304Z,6.79
2018-01-02T10:57:39.081Z,6.76
2018-01-02T10:58:54.018Z,6.71
2018-01-02T10:59:39.339Z,6.77
2018-01-02T11:00:39.116Z,6.71
2018-01-02T11:01:39.393Z,6.88
2018-01-02T11:02:39.160Z,6.74
2018-01-02T11:03:39.409Z,6.85
2018-01-02T11:04:39.429Z,6.76
2018-01-02T11:05:39.468Z,6.79
2018-01-02T11:06:39.462Z,6.81
2018-01-02T11:07:39.487Z,6.81
2018-01-02T11:08:39.489Z,6.71
2018-01-02T11:09:39.527Z,6.62
2018-01-02T11:10:39.553Z,6.69
2018-01-02T11:11:39.553Z,6.79
2018-01-02T11:12:39.602Z,6.74
2018-01-02T11:13:54.252Z,6.73
2018-01-02T11:14:39.388Z,6.69
2018-01-02T11:15:39.609Z,6.76
2018-01-02T11:16:39.639Z,6.77
2018-01-02T11:17:39.403Z,6.8
2018-01-02T11:18:39.663Z,6.79
2018-01-02T11:19:39.434Z,6.69
2018-01-02T11:20:39.696Z,6.76
2018-01-02T11:21:39.717Z,6.77
2018-01-02T11:22:54.149Z,6.77
2018-01-02T11:23:39.789Z,6.71
2018-01-02T11:24:39.518Z,6.66
2018-01-02T11:25:39.823Z,6.7
2018-01-02T11:26:39.808Z,6.77
2018-01-02T11:27:39.813Z,6.76
2018-01-02T11:28:39.587Z,6.79
2018-01-02T11:29:39.863Z,6.84
2018-01-02T11:30:39.603Z,6.76
2018-01-02T11:32:39.887Z,6.74
2018-01-02T11:33:39.939Z,6.74
2018-01-02T11:34:39.679Z,6.84
2018-01-02T11:35:39.940Z,6.73
2018-01-02T11:36:39.734Z,6.71
2018-01-02T11:37:39.991Z,6.8
2018-01-02T11:38:39.766Z,6.79
2018-01-02T11:39:39.765Z,6.76
2018-01-02T11:40:40.123Z,6.71
2018-01-02T11:41:40.046Z,6.7
2018-01-02T11:42:40.105Z,6.79
2018-01-02T11:43:40.096Z,6.66
2018-01-02T11:44:40.173Z,6.67
2018-01-02T11:45:54.783Z,6.8
2018-01-02T11:46:40.158Z,6.74
2018-01-02T11:47:40.151Z,6.74
2018-01-02T11:48:40.156Z,6.8
2018-01-02T11:49:40.221Z,6.79
2018-01-02T11:50:39.946Z,6.79
2018-01-02T11:51:40.241Z,6.84
2018-01-02T11:52:40.229Z,6.73
2018-01-02T11:53:40.004Z,6.81
2018-01-02T11:54:40.262Z,6.76
2018-01-02T11:55:40.036Z,6.7
2018-01-02T11:56:40.173Z,6.73
2018-01-02T11:57:40.328Z,6.74
2018-01-02T11:58:40.084Z,6.71
2018-01-02T11:59:40.089Z,6.71
2018-01-02T12:00:40.393Z,6.67
2018-01-02T12:01:55.055Z,6.74
2018-01-02T12:02:40.403Z,6.73
2018-01-02T12:03:40.415Z,6.79
2018-01-02T12:04:40.185Z,6.81
2018-01-02T12:05:40.232Z,6.84
2018-01-02T12:06:40.458Z,6.91
2018-01-02T12:07:40.607Z,6.95
2018-01-02T12:08:40.260Z,6.94
2018-01-02T12:09:40.515Z,6.98
2018-01-02T12:10:40.581Z,6.94
2018-01-02T12:11:40.705Z,6.95
2018-01-02T12:12:40.582Z,7.03
2018-01-02T12:13:40.365Z,6.98
2018-01-02T12:14:40.576Z,6.95
2018-01-02T12:15:40.379Z,6.95
2018-01-02T12:16:40.391Z,7.06
2018-01-02T12:17:55.076Z,6.99
2018-01-02T12:18:40.681Z,6.95
2018-01-02T12:19:40.688Z,7.02
2018-01-02T12:20:40.451Z,6.95
2018-01-02T12:21:40.757Z,7.02
2018-01-02T12:22:40.752Z,6.94
2018-01-02T12:24:40.537Z,6.88
2018-01-02T12:25:40.559Z,6.85
2018-01-02T12:26:40.804Z,6.88
2018-01-02T12:27:40.586Z,6.77
2018-01-02T12:28:40.904Z,6.84
2018-01-02T12:29:40.855Z,6.87
2018-01-02T12:30:40.871Z,6.99
2018-01-02T12:31:40.637Z,6.98
2018-01-02T12:32:40.683Z,7.02
2018-01-02T12:33:55.629Z,6.95
2018-01-02T12:34:40.952Z,6.88
2018-01-02T12:35:40.974Z,6.99
2018-01-02T12:36:40.967Z,6.99
2018-01-02T12:37:40.756Z,6.99
2018-01-02T12:38:41.052Z,7.07
2018-01-02T12:39:41.041Z,7.03
2018-01-02T12:40:41.051Z,6.97
2018-01-02T12:41:41.088Z,7.06
2018-01-02T12:42:40.837Z,6.92
2018-01-02T12:43:40.851Z,6.99
2018-01-02T12:44:41.153Z,7.07
2018-01-02T12:46:41.177Z,7.15
2018-01-02T12:47:40.929Z,7.09
2018-01-02T12:48:55.622Z,7.15
2018-01-02T12:49:41.214Z,7.15
2018-01-02T12:51:40.978Z,7.06
2018-01-02T12:52:41.258Z,7.15
2018-01-02T12:54:41.313Z,7.1
2018-01-02T12:55:41.315Z,7.09
2018-01-02T12:56:41.388Z,7.27
2018-01-02T12:57:41.342Z,7.25
2018-01-02T12:58:41.395Z,7.27
2018-01-02T12:59:41.113Z,7.2
2018-01-02T13:01:41.419Z,7.2
2018-01-02T13:02:41.423Z,7.2
2018-01-02T13:03:41.452Z,7.21
2018-01-02T13:04:41.470Z,7.23
2018-01-02T13:05:41.474Z,7.21
2018-01-02T13:06:41.487Z,7.15
2018-01-02T13:07:41.505Z,7.25
2018-01-02T13:08:41.539Z,7.23
2018-01-02T13:09:41.549Z,7.27
2018-01-02T13:10:41.553Z,7.23
2018-01-02T13:11:41.685Z,7.2
2018-01-02T13:12:41.614Z,7.24
2018-01-02T13:14:41.638Z,7.28
2018-01-02T13:15:41.641Z,7.21
2018-01-02T13:16:41.654Z,7.27
2018-01-02T13:17:41.717Z,7.2
2018-01-02T13:18:41.732Z,7.2
2018-01-02T13:19:41.703Z,7.25
2018-01-02T13:20:56.418Z,7.24
2018-01-02T13:21:41.517Z,7.28
2018-01-02T13:23:41.812Z,7.24
2018-01-02T13:24:56.490Z,7.32
2018-01-02T13:25:41.567Z,7.35
2018-01-02T13:26:41.857Z,7.35
2018-01-02T13:27:41.852Z,7.27
2018-01-02T13:28:56.299Z,7.25
2018-01-02T13:29:41.905Z,7.13
2018-01-02T13:30:41.923Z,7.27
2018-01-02T13:31:41.929Z,7.28
2018-01-02T13:33:41.941Z,7.24
2018-01-02T13:34:41.965Z,7.27
2018-01-02T13:35:42.011Z,7.13
2018-01-02T13:36:56.702Z,7.17
2018-01-02T13:37:42.044Z,7.12
2018-01-02T13:38:42.067Z,7.12
2018-01-02T13:39:42.065Z,7.12
2018-01-02T13:40:42.070Z,7.12
2018-01-02T13:42:56.902Z,7.09
2018-01-02T13:43:42.142Z,7.09
2018-01-02T13:44:42.130Z,7.15
2018-01-02T13:45:41.929Z,7.09
2018-01-02T13:46:42.187Z,7.21
2018-01-02T13:47:41.953Z,7.13
2018-01-02T13:48:42.301Z,7.13
2018-01-02T13:49:42.261Z,7.09
2018-01-02T13:50:56.919Z,7.13
2018-01-02T13:52:56.966Z,7.15
2018-01-02T13:53:42.293Z,7.1
2018-01-02T13:54:42.319Z,7.17
2018-01-02T13:55:42.093Z,7.13
2018-01-02T13:56:42.372Z,7.28
2018-01-02T13:57:42.380Z,7.12
2018-01-02T13:58:42.153Z,7.25
2018-01-02T13:59:42.395Z,7.16
2018-01-02T14:01:42.422Z,7.25
2018-01-02T14:02:42.440Z,7.25
2018-01-02T14:03:42.200Z,7.27
2018-01-02T14:04:42.487Z,7.28
2018-01-02T14:05:57.197Z,7.25
2018-01-02T14:06:42.531Z,7.42
2018-01-02T14:07:42.544Z,7.35
2018-01-02T14:08:57.242Z,7.31
2018-01-02T14:09:42.581Z,7.37